createdAt,value
2023-01-30T00:01:29.655Z,100858.00
2023-01-30T00:03:56.782Z,100855.00
2023-01-30T00:06:24.734Z,100848.00
2023-01-30T00:08:51.783Z,100829.00
2023-01-30T00:11:20.330Z,100818.00
2023-01-30T00:13:50.577Z,100807.00
2023-01-30T00:16:19.091Z,100802.00
2023-01-30T00:18:46.085Z,100781.00
2023-01-30T00:21:15.445Z,100785.00
2023-01-30T00:23:42.855Z,100778.00
2023-01-30T00:26:11.150Z,100776.00
2023-01-30T00:28:39.590Z,100780.00
2023-01-30T00:31:07.357Z,100767.00
2023-01-30T00:33:36.429Z,100759.00
2023-01-30T00:36:03.558Z,100726.00
2023-01-30T00:38:30.700Z,100720.00
2023-01-30T00:40:57.417Z,100710.00
2023-01-30T00:43:43.003Z,100705.00
2023-01-30T00:47:01.465Z,100685.00
2023-01-30T00:49:28.373Z,100678.00
2023-01-30T00:51:55.222Z,100655.00
2023-01-30T00:54:21.970Z,100653.00
2023-01-30T00:56:48.773Z,100651.00
2023-01-30T00:59:15.533Z,100643.00
2023-01-30T01:01:42.314Z,100639.00
2023-01-30T01:04:10.563Z,100640.00
2023-01-30T01:06:38.632Z,100647.00
2023-01-30T01:09:05.917Z,100647.00
2023-01-30T01:11:32.980Z,100646.00
2023-01-30T01:14:02.338Z,100637.00
2023-01-30T01:16:31.864Z,100640.00
2023-01-30T01:18:59.556Z,100622.00
2023-01-30T01:21:26.779Z,100598.00
2023-01-30T01:23:57.585Z,100571.00
2023-01-30T01:26:24.826Z,100561.00
2023-01-30T01:28:58.798Z,100574.00
2023-01-30T01:31:26.129Z,100559.00
2023-01-30T01:33:52.967Z,100562.00
2023-01-30T01:36:49.662Z,100564.00
2023-01-30T01:39:06.944Z,100558.00
2023-01-30T01:41:33.836Z,100555.00
2023-01-30T01:44:13.355Z,100581.00
2023-01-30T01:46:53.388Z,100580.00
2023-01-30T01:49:27.971Z,100570.00
2023-01-30T01:52:05.162Z,100593.00
2023-01-30T01:54:42.440Z,100576.00
2023-01-30T01:57:20.788Z,100573.00
2023-01-30T01:59:54.050Z,100562.00
2023-01-30T02:02:21.569Z,100553.00
2023-01-30T02:05:06.403Z,100543.00
2023-01-30T02:07:51.691Z,100527.00
2023-01-30T02:10:32.595Z,100507.00
2023-01-30T02:12:59.379Z,100500.00
2023-01-30T02:15:26.152Z,100494.00
2023-01-30T02:17:52.948Z,100485.00
2023-01-30T02:21:02.209Z,100489.00
2023-01-30T02:24:06.824Z,100474.00
2023-01-30T02:26:51.894Z,100451.00
2023-01-30T02:30:02.130Z,100445.00
2023-01-30T02:32:55.363Z,100448.00
2023-01-30T02:35:55.731Z,100441.00
2023-01-30T02:39:26.615Z,100435.00
2023-01-30T02:42:21.720Z,100439.00
2023-01-30T02:45:23.802Z,100435.00
2023-01-30T02:48:14.991Z,100423.00
2023-01-30T02:50:57.179Z,100402.00
2023-01-30T02:53:24.228Z,100410.00
2023-01-30T02:55:51.019Z,100400.00
2023-01-30T02:58:24.421Z,100400.00
2023-01-30T03:02:05.480Z,100387.00
2023-01-30T03:05:04.398Z,100383.00
2023-01-30T03:07:48.233Z,100372.00
2023-01-30T03:10:45.060Z,100366.00
2023-01-30T03:13:24.303Z,100363.00
2023-01-30T03:16:00.064Z,100337.00
2023-01-30T03:18:26.882Z,100364.00
2023-01-30T03:20:54.147Z,100338.00
2023-01-30T03:23:21.062Z,100342.00
2023-01-30T03:25:49.076Z,100338.00
2023-01-30T03:28:21.252Z,100348.00
2023-01-30T03:30:48.155Z,100342.00
2023-01-30T03:33:14.925Z,100342.00
2023-01-30T03:35:43.257Z,100324.00
2023-01-30T03:38:10.943Z,100323.00
2023-01-30T03:40:37.988Z,100330.00
2023-01-30T03:43:05.218Z,100324.00
2023-01-30T03:45:32.026Z,100320.00
2023-01-30T03:47:58.811Z,100314.00
2023-01-30T03:50:25.707Z,100303.00
2023-01-30T03:52:52.535Z,100303.00
2023-01-30T03:55:19.807Z,100309.00
2023-01-30T03:57:47.103Z,100285.00
2023-01-30T04:00:14.980Z,100291.00
2023-01-30T04:02:41.931Z,100289.00
2023-01-30T04:05:08.841Z,100281.00
2023-01-30T04:07:35.589Z,100268.00
2023-01-30T04:10:02.336Z,100263.00
2023-01-30T04:12:29.169Z,100247.00
2023-01-30T04:14:56.098Z,100254.00
2023-01-30T04:17:22.951Z,100249.00
2023-01-30T04:19:49.924Z,100239.00
2023-01-30T04:22:16.807Z,100249.00
2023-01-30T04:24:43.563Z,100248.00
2023-01-30T04:27:10.385Z,100240.00
2023-01-30T04:29:37.119Z,100227.00
2023-01-30T04:32:04.016Z,100232.00
2023-01-30T04:34:31.011Z,100236.00
2023-01-30T04:36:57.775Z,100222.00
2023-01-30T04:39:24.513Z,100210.00
2023-01-30T04:41:51.750Z,100213.00
2023-01-30T04:44:18.634Z,100210.00
2023-01-30T04:46:45.736Z,100216.00
2023-01-30T04:49:12.984Z,100218.00
2023-01-30T04:51:39.751Z,100208.00
2023-01-30T04:54:06.710Z,100196.00
2023-01-30T04:56:33.477Z,100196.00
2023-01-30T04:59:00.320Z,100204.00
2023-01-30T05:01:34.656Z,100193.00
2023-01-30T05:04:02.527Z,100188.00
2023-01-30T05:06:31.027Z,100186.00
2023-01-30T05:08:58.531Z,100183.00
2023-01-30T05:11:28.565Z,100160.00
2023-01-30T05:13:56.056Z,100176.00
2023-01-30T05:16:23.723Z,100168.00
2023-01-30T05:18:51.235Z,100160.00
2023-01-30T05:21:26.033Z,100160.00
2023-01-30T05:23:53.696Z,100160.00
2023-01-30T05:26:21.316Z,100158.00
2023-01-30T05:28:57.000Z,100166.00
2023-01-30T05:31:24.567Z,100158.00
2023-01-30T05:33:52.547Z,100149.00
2023-01-30T05:36:22.071Z,100139.00
2023-01-30T05:38:48.844Z,100135.00
2023-01-30T05:41:17.206Z,100129.00
2023-01-30T05:43:44.717Z,100122.00
2023-01-30T05:46:13.643Z,100127.00
2023-01-30T05:48:40.587Z,100115.00
2023-01-30T05:51:19.135Z,100112.00
2023-01-30T05:53:46.613Z,100105.00
2023-01-30T05:56:13.653Z,100110.00
2023-01-30T05:58:40.826Z,100090.00
2023-01-30T06:01:11.604Z,100109.00
2023-01-30T06:03:39.322Z,100100.00
2023-01-30T06:06:07.378Z,100088.00
2023-01-30T06:08:34.309Z,100086.00
2023-01-30T06:11:08.502Z,100092.00
2023-01-30T06:13:35.976Z,100085.00
2023-01-30T06:16:03.382Z,100089.00
2023-01-30T06:18:30.245Z,100084.00
2023-01-30T06:20:57.018Z,100087.00
2023-01-30T06:23:23.996Z,100089.00
2023-01-30T06:25:53.144Z,100081.00
2023-01-30T06:28:20.604Z,100093.00
2023-01-30T06:30:47.578Z,100086.00
2023-01-30T06:33:14.907Z,100089.00
2023-01-30T06:35:43.367Z,100094.00
2023-01-30T06:38:11.536Z,100098.00
2023-01-30T06:40:39.803Z,100097.00
2023-01-30T06:43:07.368Z,100092.00
2023-01-30T06:45:34.178Z,100090.00
2023-01-30T06:48:00.957Z,100088.00
2023-01-30T06:50:29.841Z,100079.00
2023-01-30T06:52:57.714Z,100091.00
2023-01-30T06:55:26.944Z,100078.00
2023-01-30T06:58:09.719Z,100078.00
2023-01-30T07:00:40.021Z,100060.00
2023-01-30T07:03:15.637Z,100048.00
2023-01-30T07:05:45.096Z,100048.00
2023-01-30T07:08:12.529Z,100052.00
2023-01-30T07:10:41.709Z,100055.00
2023-01-30T07:13:08.519Z,100054.00
2023-01-30T07:15:35.471Z,100060.00
2023-01-30T07:18:02.606Z,100046.00
2023-01-30T07:20:31.385Z,100047.00
2023-01-30T07:22:58.741Z,100042.00
2023-01-30T07:25:28.671Z,100042.00
2023-01-30T07:28:01.525Z,100039.00
2023-01-30T07:30:32.839Z,100041.00
2023-01-30T07:33:00.537Z,100036.00
2023-01-30T07:35:31.381Z,100036.00
2023-01-30T07:37:58.842Z,100037.00
2023-01-30T07:40:26.687Z,100043.00
2023-01-30T07:43:07.423Z,100042.00
2023-01-30T07:45:47.297Z,100045.00
2023-01-30T07:48:17.896Z,100032.00
2023-01-30T07:50:46.048Z,100044.00
2023-01-30T07:53:16.517Z,100047.00
2023-01-30T07:55:43.847Z,100050.00
2023-01-30T07:58:17.526Z,100057.00
2023-01-30T08:00:44.993Z,100067.00
2023-01-30T08:03:14.609Z,100064.00
2023-01-30T08:05:41.480Z,100063.00
2023-01-30T08:08:08.274Z,100068.00
2023-01-30T08:10:35.219Z,100062.00
2023-01-30T08:13:02.020Z,100052.00
2023-01-30T08:15:31.565Z,100049.00
2023-01-30T08:17:58.904Z,100060.00
2023-01-30T08:20:27.716Z,100069.00
2023-01-30T08:22:54.800Z,100057.00
2023-01-30T08:25:22.183Z,100055.00
2023-01-30T08:27:49.085Z,100051.00
2023-01-30T08:30:16.625Z,100046.00
2023-01-30T08:32:44.028Z,100038.00
2023-01-30T08:35:11.252Z,100013.00
2023-01-30T08:37:40.738Z,100020.00
2023-01-30T08:40:09.469Z,100037.00
2023-01-30T08:42:36.386Z,100051.00
2023-01-30T08:45:03.753Z,100043.00
2023-01-30T08:47:31.713Z,100051.00
2023-01-30T08:49:58.661Z,100040.00
2023-01-30T08:52:25.640Z,100039.00
2023-01-30T08:54:52.994Z,100043.00
2023-01-30T08:57:20.267Z,100037.00
2023-01-30T08:59:47.621Z,100040.00
2023-01-30T09:02:14.354Z,100044.00
2023-01-30T09:04:41.117Z,100040.00
2023-01-30T09:07:08.004Z,100038.00
2023-01-30T09:09:35.011Z,100041.00
2023-01-30T09:12:01.726Z,100044.00
2023-01-30T09:14:28.530Z,100039.00
2023-01-30T09:16:57.895Z,100045.00
2023-01-30T09:19:28.771Z,100053.00
2023-01-30T09:21:56.348Z,100043.00
2023-01-30T09:24:26.552Z,100053.00
2023-01-30T09:26:54.992Z,100048.00
2023-01-30T09:29:22.749Z,100053.00
2023-01-30T09:31:49.847Z,100046.00
2023-01-30T09:34:16.596Z,100055.00
2023-01-30T09:36:44.214Z,100059.00
2023-01-30T09:39:11.014Z,100055.00
2023-01-30T09:42:06.139Z,100047.00
2023-01-30T09:45:17.925Z,100061.00
2023-01-30T09:48:21.869Z,100050.00
2023-01-30T09:51:44.332Z,100042.00
2023-01-30T09:54:22.205Z,100045.00
2023-01-30T09:57:21.748Z,100054.00
2023-01-30T10:00:11.180Z,100041.00
2023-01-30T10:03:10.495Z,100044.00
2023-01-30T10:06:05.205Z,100044.00
2023-01-30T10:08:40.755Z,100037.00
2023-01-30T10:11:50.861Z,100042.00
2023-01-30T10:14:50.862Z,100025.00
2023-01-30T10:18:05.354Z,100034.00
2023-01-30T10:20:41.192Z,100032.00
2023-01-30T10:23:33.296Z,100019.00
2023-01-30T10:26:26.318Z,100043.00
2023-01-30T10:29:08.788Z,100058.00
2023-01-30T10:31:55.980Z,100031.00
2023-01-30T10:34:33.741Z,100047.00
2023-01-30T10:37:10.320Z,100045.00
2023-01-30T10:39:57.704Z,100043.00
2023-01-30T10:42:39.181Z,100022.00
2023-01-30T10:45:21.167Z,100031.00
2023-01-30T10:49:04.039Z,100026.00
2023-01-30T10:51:59.890Z,100030.00
2023-01-30T10:54:42.889Z,100018.00
2023-01-30T10:57:44.172Z,100034.00
2023-01-30T11:00:40.017Z,100041.00
2023-01-30T11:03:22.045Z,100027.00
2023-01-30T11:05:56.725Z,100012.00
2023-01-30T11:08:33.544Z,100011.00
2023-01-30T11:11:01.336Z,100001.00
2023-01-30T11:13:33.538Z,100003.00
2023-01-30T11:16:07.782Z,99989.00
2023-01-30T11:21:43.582Z,99982.00
2023-01-30T11:24:17.528Z,99980.00
2023-01-30T11:26:48.003Z,99969.00
2023-01-30T11:29:32.705Z,99961.00
2023-01-30T11:32:12.819Z,99966.00
2023-01-30T11:34:44.128Z,99958.00
2023-01-30T11:37:27.309Z,99952.00
2023-01-30T11:39:54.166Z,99959.00
2023-01-30T11:42:31.648Z,99949.00
2023-01-30T11:45:16.210Z,99944.00
2023-01-30T11:48:07.872Z,99942.00
2023-01-30T11:50:45.810Z,99938.00
2023-01-30T11:53:39.507Z,99941.00
2023-01-30T11:56:20.588Z,99931.00
2023-01-30T11:59:00.906Z,99955.00
2023-01-30T12:01:31.864Z,99956.00
2023-01-30T12:04:00.216Z,99956.00
2023-01-30T12:06:35.246Z,99950.00
2023-01-30T12:09:03.491Z,99954.00
2023-01-30T12:11:42.285Z,99961.00
2023-01-30T12:14:26.983Z,99973.00
2023-01-30T12:17:21.653Z,99929.00
2023-01-30T12:20:33.707Z,99926.00
2023-01-30T12:23:33.878Z,99920.00
2023-01-30T12:26:27.783Z,99916.00
2023-01-30T12:29:19.170Z,99921.00
2023-01-30T12:32:15.848Z,99911.00
2023-01-30T12:34:47.923Z,99907.00
2023-01-30T12:37:30.671Z,99904.00
2023-01-30T12:40:47.078Z,99892.00
2023-01-30T12:43:28.746Z,99883.00
2023-01-30T12:46:38.657Z,99888.00
2023-01-30T12:49:45.352Z,99884.00
2023-01-30T12:53:02.376Z,99881.00
2023-01-30T12:56:26.147Z,99879.00
2023-01-30T12:59:17.661Z,99887.00
2023-01-30T13:02:21.940Z,99882.00
2023-01-30T13:05:22.523Z,99886.00
2023-01-30T13:08:18.669Z,99884.00
2023-01-30T13:11:22.532Z,99887.00
2023-01-30T13:14:21.925Z,99870.00
2023-01-30T13:17:18.217Z,99869.00
2023-01-30T13:20:04.715Z,99872.00
2023-01-30T13:22:57.844Z,99860.00
2023-01-30T13:25:40.572Z,99870.00
2023-01-30T13:28:16.290Z,99866.00
2023-01-30T13:30:45.879Z,99859.00
2023-01-30T13:33:24.326Z,99837.00
2023-01-30T13:36:06.797Z,99854.00
2023-01-30T13:38:41.525Z,99834.00
2023-01-30T13:41:13.466Z,99826.00
2023-01-30T13:43:51.568Z,99842.00
2023-01-30T13:46:26.664Z,99857.00
2023-01-30T13:49:39.468Z,99851.00
2023-01-30T13:52:33.621Z,99852.00
2023-01-30T13:55:13.411Z,99875.00
2023-01-30T13:57:50.464Z,99862.00
2023-01-30T14:00:20.565Z,99869.00
2023-01-30T14:03:06.483Z,99879.00
2023-01-30T14:06:05.892Z,99879.00
2023-01-30T14:08:46.323Z,99894.00
2023-01-30T14:12:00.622Z,99900.00
2023-01-30T14:14:40.658Z,99909.00
2023-01-30T14:17:14.316Z,99909.00
2023-01-30T14:19:45.879Z,99902.00
2023-01-30T14:22:35.906Z,99907.00
2023-01-30T14:25:30.429Z,99928.00
2023-01-30T14:28:00.202Z,99929.00
2023-01-30T14:30:44.927Z,99935.00
2023-01-30T14:33:51.548Z,99945.00
2023-01-30T14:36:21.047Z,99950.00
2023-01-30T14:39:17.832Z,99968.00
2023-01-30T14:41:44.622Z,99985.00
2023-01-30T14:44:11.380Z,99983.00
2023-01-30T14:46:54.827Z,99976.00
2023-01-30T14:49:28.761Z,99993.00
2023-01-30T14:51:56.405Z,99993.00
2023-01-30T14:54:41.033Z,99993.00
2023-01-30T14:57:23.293Z,99997.00
2023-01-30T15:00:16.457Z,100003.00
2023-01-30T15:02:55.901Z,100015.00
2023-01-30T15:05:27.492Z,100013.00
2023-01-30T15:08:02.486Z,100015.00
2023-01-30T15:11:04.531Z,100004.00
2023-01-30T15:13:57.348Z,100016.00
2023-01-30T15:17:14.337Z,100012.00
2023-01-30T15:20:07.263Z,100008.00
2023-01-30T15:23:11.953Z,100016.00
2023-01-30T15:26:08.090Z,100001.00
2023-01-30T15:29:24.029Z,100024.00
2023-01-30T15:32:14.093Z,100026.00
2023-01-30T15:34:52.928Z,100034.00
2023-01-30T15:37:46.835Z,100036.00
2023-01-30T15:40:16.918Z,100030.00
2023-01-30T15:43:21.243Z,100034.00
2023-01-30T15:46:21.816Z,100046.00
2023-01-30T15:49:06.741Z,100054.00
2023-01-30T15:51:34.891Z,100056.00
2023-01-30T15:54:10.648Z,100051.00
2023-01-30T15:56:40.160Z,100054.00
2023-01-30T15:59:08.635Z,100063.00
2023-01-30T16:01:35.617Z,100051.00
2023-01-30T16:04:07.203Z,100042.00
2023-01-30T16:06:36.838Z,100050.00
2023-01-30T16:09:19.848Z,100053.00
2023-01-30T16:11:46.154Z,100070.00
2023-01-30T16:14:15.518Z,100070.00
2023-01-30T16:16:55.434Z,100079.00
2023-01-30T16:19:32.490Z,100081.00
2023-01-30T16:22:18.704Z,100066.00
2023-01-30T16:24:53.117Z,100084.00
2023-01-30T16:27:40.002Z,100087.00
2023-01-30T16:30:08.935Z,100088.00
2023-01-30T16:32:36.865Z,100102.00
2023-01-30T16:35:28.520Z,100100.00
2023-01-30T16:37:57.806Z,100116.00
2023-01-30T16:40:44.376Z,100096.00
2023-01-30T16:43:29.519Z,100110.00
2023-01-30T16:46:52.212Z,100117.00
2023-01-30T16:49:35.684Z,100118.00
2023-01-30T16:52:33.893Z,100114.00
2023-01-30T16:55:07.435Z,100128.00
2023-01-30T16:57:42.803Z,100130.00
2023-01-30T17:00:27.922Z,100129.00
2023-01-30T17:02:58.759Z,100150.00
2023-01-30T17:05:36.713Z,100161.00
2023-01-30T17:08:04.266Z,100157.00
2023-01-30T17:10:40.225Z,100163.00
2023-01-30T17:13:41.769Z,100161.00
2023-01-30T17:16:34.993Z,100175.00
2023-01-30T17:19:02.246Z,100201.00
2023-01-30T17:21:49.221Z,100201.00
2023-01-30T17:24:22.766Z,100195.00
2023-01-30T17:26:54.457Z,100198.00
2023-01-30T17:29:41.460Z,100213.00
2023-01-30T17:32:13.360Z,100209.00
2023-01-30T17:34:41.315Z,100207.00
2023-01-30T17:37:21.293Z,100211.00
2023-01-30T17:39:49.211Z,100214.00
2023-01-30T17:42:22.158Z,100233.00
2023-01-30T17:44:49.510Z,100248.00
2023-01-30T17:47:16.292Z,100241.00
2023-01-30T17:49:43.445Z,100244.00
2023-01-30T17:52:13.642Z,100247.00
2023-01-30T17:54:40.489Z,100253.00
2023-01-30T17:57:10.543Z,100258.00
2023-01-30T17:59:37.290Z,100265.00
2023-01-30T18:02:05.297Z,100253.00
2023-01-30T18:04:32.068Z,100257.00
2023-01-30T18:07:06.408Z,100281.00
2023-01-30T18:09:33.335Z,100283.00
2023-01-30T18:12:00.182Z,100297.00
2023-01-30T18:14:27.330Z,100288.00
2023-01-30T18:16:59.997Z,100294.00
2023-01-30T18:19:29.040Z,100293.00
2023-01-30T18:21:58.471Z,100301.00
2023-01-30T18:24:25.653Z,100311.00
2023-01-30T18:26:52.784Z,100317.00
2023-01-30T18:29:19.604Z,100315.00
2023-01-30T18:31:46.678Z,100317.00
2023-01-30T18:34:13.544Z,100326.00
2023-01-30T18:36:40.398Z,100326.00
2023-01-30T18:39:07.320Z,100347.00
2023-01-30T18:41:35.348Z,100351.00
2023-01-30T18:44:05.579Z,100356.00
2023-01-30T18:46:33.553Z,100359.00
2023-01-30T18:49:00.538Z,100369.00
2023-01-30T18:51:34.122Z,100358.00
2023-01-30T18:54:01.500Z,100380.00
2023-01-30T18:56:31.871Z,100373.00
2023-01-30T18:59:03.235Z,100384.00
2023-01-30T19:01:38.891Z,100394.00
2023-01-30T19:04:08.990Z,100403.00
2023-01-30T19:06:42.595Z,100409.00
2023-01-30T19:09:14.565Z,100405.00
2023-01-30T19:11:59.804Z,100406.00
2023-01-30T19:14:26.730Z,100430.00
2023-01-30T19:16:54.541Z,100418.00
2023-01-30T19:19:21.533Z,100426.00
2023-01-30T19:21:49.764Z,100421.00
2023-01-30T19:24:17.825Z,100437.00
2023-01-30T19:26:44.941Z,100435.00
2023-01-30T19:29:11.805Z,100438.00
2023-01-30T19:31:39.015Z,100431.00
2023-01-30T19:34:06.391Z,100456.00
2023-01-30T19:36:34.884Z,100466.00
2023-01-30T19:39:04.274Z,100465.00
2023-01-30T19:41:34.868Z,100477.00
2023-01-30T19:44:05.404Z,100469.00
2023-01-30T19:46:32.776Z,100485.00
2023-01-30T19:48:59.653Z,100489.00
2023-01-30T19:51:29.925Z,100489.00
2023-01-30T19:54:04.875Z,100482.00
2023-01-30T19:56:34.060Z,100482.00
2023-01-30T19:59:02.262Z,100486.00
2023-01-30T20:01:32.964Z,100496.00
2023-01-30T20:04:01.771Z,100491.00
2023-01-30T20:06:32.460Z,100497.00
2023-01-30T20:09:11.213Z,100502.00
2023-01-30T20:11:40.861Z,100506.00
2023-01-30T20:14:10.587Z,100510.00
2023-01-30T20:16:37.781Z,100523.00
2023-01-30T20:19:17.244Z,100539.00
2023-01-30T20:21:45.502Z,100543.00
2023-01-30T20:24:14.979Z,100532.00
2023-01-30T20:26:42.895Z,100535.00
2023-01-30T20:29:10.796Z,100533.00
2023-01-30T20:31:39.151Z,100554.00
2023-01-30T20:34:10.707Z,100544.00
2023-01-30T20:36:37.683Z,100550.00
2023-01-30T20:39:06.498Z,100543.00
2023-01-30T20:41:35.663Z,100557.00
2023-01-30T20:44:04.927Z,100568.00
2023-01-30T20:46:40.992Z,100569.00
2023-01-30T20:49:17.416Z,100579.00
2023-01-30T20:51:45.831Z,100582.00
2023-01-30T20:54:15.378Z,100595.00
2023-01-30T20:56:45.637Z,100603.00
2023-01-30T20:59:27.183Z,100622.00
2023-01-30T21:01:54.434Z,100617.00
2023-01-30T21:04:24.250Z,100621.00
2023-01-30T21:06:51.275Z,100613.00
2023-01-30T21:09:23.912Z,100631.00
2023-01-30T21:11:53.100Z,100650.00
2023-01-30T21:14:20.013Z,100646.00
2023-01-30T21:16:47.873Z,100658.00
2023-01-30T21:19:17.370Z,100668.00
2023-01-30T21:21:50.268Z,100650.00
2023-01-30T21:24:28.265Z,100663.00
2023-01-30T21:26:56.573Z,100662.00
2023-01-30T21:29:26.772Z,100675.00
2023-01-30T21:31:55.530Z,100665.00
2023-01-30T21:34:23.209Z,100662.00
2023-01-30T21:37:08.526Z,100666.00
2023-01-30T21:39:53.799Z,100676.00
2023-01-30T21:42:39.220Z,100683.00
2023-01-30T21:45:06.936Z,100688.00
2023-01-30T21:47:33.757Z,100695.00
2023-01-30T21:50:00.531Z,100715.00
2023-01-30T21:52:27.285Z,100703.00
2023-01-30T21:54:54.031Z,100714.00
2023-01-30T21:57:20.839Z,100723.00
2023-01-30T21:59:47.578Z,100721.00
2023-01-30T22:02:14.348Z,100732.00
2023-01-30T22:04:41.379Z,100734.00
2023-01-30T22:07:08.206Z,100721.00
2023-01-30T22:09:34.948Z,100726.00
2023-01-30T22:12:01.818Z,100729.00
2023-01-30T22:14:28.876Z,100744.00
2023-01-30T22:16:55.650Z,100743.00
2023-01-30T22:19:22.409Z,100752.00
2023-01-30T22:21:49.204Z,100760.00
2023-01-30T22:24:16.207Z,100767.00
2023-01-30T22:26:43.602Z,100757.00
2023-01-30T22:29:10.562Z,100760.00
2023-01-30T22:31:40.554Z,100764.00
2023-01-30T22:34:07.826Z,100761.00
2023-01-30T22:36:35.296Z,100765.00
2023-01-30T22:39:03.682Z,100764.00
2023-01-30T22:41:36.268Z,100772.00
2023-01-30T22:44:05.199Z,100773.00
2023-01-30T22:46:36.279Z,100777.00
2023-01-30T22:49:06.185Z,100779.00
2023-01-30T22:51:43.473Z,100783.00
2023-01-30T22:54:17.927Z,100781.00
2023-01-30T22:56:48.612Z,100777.00
2023-01-30T22:59:15.617Z,100775.00
2023-01-30T23:01:45.950Z,100780.00
2023-01-30T23:04:16.522Z,100776.00
2023-01-30T23:06:44.554Z,100791.00
2023-01-30T23:09:17.653Z,100792.00
2023-01-30T23:12:12.913Z,100787.00
2023-01-30T23:14:40.554Z,100794.00
2023-01-30T23:17:26.737Z,100789.00
2023-01-30T23:19:54.695Z,100783.00
2023-01-30T23:22:21.853Z,100798.00
2023-01-30T23:24:48.825Z,100789.00
2023-01-30T23:27:15.856Z,100797.00
2023-01-30T23:29:43.168Z,100805.00
2023-01-30T23:32:10.162Z,100818.00
2023-01-30T23:34:36.996Z,100816.00
2023-01-30T23:37:03.905Z,100812.00
2023-01-30T23:39:30.682Z,100799.00
2023-01-30T23:41:57.615Z,100829.00
2023-01-30T23:44:24.376Z,100815.00
2023-01-30T23:46:51.143Z,100811.00
2023-01-30T23:49:18.122Z,100807.00
2023-01-30T23:51:45.905Z,100804.00
2023-01-30T23:54:14.137Z,100824.00
2023-01-30T23:56:44.781Z,100817.00
2023-01-30T23:59:12.586Z,100825.00
